sensor_id;sensor_type;location;lat;lon;timestamp;pressure;altitude;pressure_sealevel;temperature;humidity
28000;BME280;15328;50.860;10.562;2023-06-10T00:04:47;96503.72;;;18.38;45.39
28000;BME280;15328;50.860;10.562;2023-06-10T00:09:47;96498.31;;;18.33;45.28
28000;BME280;15328;50.860;10.562;2023-06-10T00:14:48;96499.91;;;18.29;45.45
28000;BME280;15328;50.860;10.562;2023-06-10T00:19:51;96492.91;;;18.23;46.04
28000;BME280;15328;50.860;10.562;2023-06-10T00:24:53;96502.03;;;18.17;45.91
28000;BME280;15328;50.860;10.562;2023-06-10T00:29:53;96507.38;;;18.07;46.41
28000;BME280;15328;50.860;10.562;2023-06-10T00:34:53;96511.91;;;17.96;46.83
28000;BME280;15328;50.860;10.562;2023-06-10T00:39:54;96500.06;;;17.92;46.96
28000;BME280;15328;50.860;10.562;2023-06-10T00:44:54;96503.53;;;17.82;46.83
28000;BME280;15328;50.860;10.562;2023-06-10T00:49:55;96509.66;;;17.78;46.63
28000;BME280;15328;50.860;10.562;2023-06-10T00:54:56;96516.09;;;17.72;47.13
28000;BME280;15328;50.860;10.562;2023-06-10T00:59:56;96513.59;;;17.65;47.11
28000;BME280;15328;50.860;10.562;2023-06-10T01:04:58;96510.09;;;17.59;47.21
28000;BME280;15328;50.860;10.562;2023-06-10T01:10:06;96512.22;;;17.57;47.32
28000;BME280;15328;50.860;10.562;2023-06-10T01:15:10;96514.56;;;17.49;47.55
28000;BME280;15328;50.860;10.562;2023-06-10T01:20:10;96514.53;;;17.44;47.96
28000;BME280;15328;50.860;10.562;2023-06-10T01:25:12;96521.44;;;17.29;48.44
28000;BME280;15328;50.860;10.562;2023-06-10T01:30:15;96523.53;;;17.22;48.72
28000;BME280;15328;50.860;10.562;2023-06-10T01:35:21;96524.84;;;17.20;48.48
28000;BME280;15328;50.860;10.562;2023-06-10T01:40:25;96527.72;;;17.08;48.67
28000;BME280;15328;50.860;10.562;2023-06-10T01:45:26;96531.19;;;17.04;48.27
28000;BME280;15328;50.860;10.562;2023-06-10T01:50:27;96529.47;;;16.92;48.49
28000;BME280;15328;50.860;10.562;2023-06-10T01:55:27;96539.38;;;16.87;49.07
28000;BME280;15328;50.860;10.562;2023-06-10T02:00:27;96534.00;;;16.87;48.94
28000;BME280;15328;50.860;10.562;2023-06-10T02:05:28;96531.97;;;16.72;49.97
28000;BME280;15328;50.860;10.562;2023-06-10T02:10:28;96536.78;;;16.70;50.30
28000;BME280;15328;50.860;10.562;2023-06-10T02:15:28;96544.53;;;16.66;50.53
28000;BME280;15328;50.860;10.562;2023-06-10T02:20:29;96539.72;;;16.68;50.30
28000;BME280;15328;50.860;10.562;2023-06-10T02:25:29;96543.38;;;16.62;50.57
28000;BME280;15328;50.860;10.562;2023-06-10T02:30:30;96541.22;;;16.59;50.96
28000;BME280;15328;50.860;10.562;2023-06-10T02:35:30;96530.16;;;16.56;50.81
28000;BME280;15328;50.860;10.562;2023-06-10T02:40:31;96541.69;;;16.51;51.27
28000;BME280;15328;50.860;10.562;2023-06-10T02:45:31;96536.69;;;16.38;51.61
28000;BME280;15328;50.860;10.562;2023-06-10T02:50:31;96528.63;;;16.38;51.83
28000;BME280;15328;50.860;10.562;2023-06-10T02:55:35;96523.25;;;16.38;51.82
28000;BME280;15328;50.860;10.562;2023-06-10T03:00:35;96512.94;;;16.25;52.27
28000;BME280;15328;50.860;10.562;2023-06-10T03:05:37;96522.81;;;16.19;52.59
28000;BME280;15328;50.860;10.562;2023-06-10T03:10:37;96518.00;;;16.21;52.27
28000;BME280;15328;50.860;10.562;2023-06-10T03:15:37;96520.41;;;16.23;52.70
28000;BME280;15328;50.860;10.562;2023-06-10T03:20:40;96526.53;;;16.18;53.55
28000;BME280;15328;50.860;10.562;2023-06-10T03:25:41;96520.69;;;16.21;53.56
28000;BME280;15328;50.860;10.562;2023-06-10T03:30:41;96527.34;;;16.19;53.52
28000;BME280;15328;50.860;10.562;2023-06-10T03:35:42;96538.56;;;16.16;53.78
28000;BME280;15328;50.860;10.562;2023-06-10T03:40:42;96535.66;;;16.17;53.75
28000;BME280;15328;50.860;10.562;2023-06-10T03:45:43;96539.16;;;16.18;53.82
28000;BME280;15328;50.860;10.562;2023-06-10T03:50:43;96535.16;;;16.20;54.19
28000;BME280;15328;50.860;10.562;2023-06-10T03:55:43;96540.28;;;16.22;54.33
28000;BME280;15328;50.860;10.562;2023-06-10T04:00:44;96553.75;;;16.27;53.94
28000;BME280;15328;50.860;10.562;2023-06-10T04:05:45;96532.03;;;16.28;54.18
28000;BME280;15328;50.860;10.562;2023-06-10T04:10:46;96543.81;;;16.27;54.84
28000;BME280;15328;50.860;10.562;2023-06-10T04:15:47;96537.19;;;16.35;54.31
28000;BME280;15328;50.860;10.562;2023-06-10T04:20:47;96551.41;;;16.35;54.34
28000;BME280;15328;50.860;10.562;2023-06-10T04:25:48;96557.19;;;16.44;54.69
28000;BME280;15328;50.860;10.562;2023-06-10T04:30:48;96544.56;;;16.45;55.27
28000;BME280;15328;50.860;10.562;2023-06-10T04:35:50;96551.41;;;16.57;54.87
28000;BME280;15328;50.860;10.562;2023-06-10T04:40:50;96551.78;;;16.66;54.97
28000;BME280;15328;50.860;10.562;2023-06-10T04:45:50;96557.00;;;16.78;55.00
28000;BME280;15328;50.860;10.562;2023-06-10T04:50:51;96554.41;;;16.88;54.93
28000;BME280;15328;50.860;10.562;2023-06-10T04:55:51;96554.50;;;16.98;54.44
28000;BME280;15328;50.860;10.562;2023-06-10T05:00:51;96549.78;;;17.10;53.85
28000;BME280;15328;50.860;10.562;2023-06-10T05:05:52;96548.28;;;17.24;53.67
28000;BME280;15328;50.860;10.562;2023-06-10T05:10:52;96560.22;;;17.39;53.14
28000;BME280;15328;50.860;10.562;2023-06-10T05:15:52;96567.34;;;17.55;52.89
28000;BME280;15328;50.860;10.562;2023-06-10T05:20:53;96570.59;;;17.57;51.83
28000;BME280;15328;50.860;10.562;2023-06-10T05:25:56;96575.72;;;17.64;52.01
28000;BME280;15328;50.860;10.562;2023-06-10T05:30:56;96580.91;;;17.70;51.65
28000;BME280;15328;50.860;10.562;2023-06-10T05:35:58;96577.44;;;17.75;51.44
28000;BME280;15328;50.860;10.562;2023-06-10T05:40:58;96580.72;;;17.82;51.33
28000;BME280;15328;50.860;10.562;2023-06-10T05:45:59;96587.78;;;17.93;51.28
28000;BME280;15328;50.860;10.562;2023-06-10T05:50:59;96583.31;;;18.09;51.83
28000;BME280;15328;50.860;10.562;2023-06-10T05:56:00;96579.59;;;18.25;51.02
28000;BME280;15328;50.860;10.562;2023-06-10T06:01:00;96579.13;;;18.38;51.08
28000;BME280;15328;50.860;10.562;2023-06-10T06:06:00;96583.75;;;18.53;50.69
28000;BME280;15328;50.860;10.562;2023-06-10T06:11:01;96588.69;;;18.71;50.42
28000;BME280;15328;50.860;10.562;2023-06-10T06:16:01;96591.41;;;18.87;50.04
28000;BME280;15328;50.860;10.562;2023-06-10T06:21:02;96594.13;;;18.92;49.53
28000;BME280;15328;50.860;10.562;2023-06-10T06:26:02;96589.28;;;18.94;49.70
28000;BME280;15328;50.860;10.562;2023-06-10T06:31:02;96591.19;;;19.08;49.90
28000;BME280;15328;50.860;10.562;2023-06-10T06:36:03;96594.97;;;19.38;49.71
28000;BME280;15328;50.860;10.562;2023-06-10T06:41:03;96594.72;;;19.65;49.65
28000;BME280;15328;50.860;10.562;2023-06-10T06:46:06;96605.22;;;19.92;48.88
28000;BME280;15328;50.860;10.562;2023-06-10T06:51:06;96604.66;;;20.05;48.70
28000;BME280;15328;50.860;10.562;2023-06-10T06:56:07;96617.00;;;20.26;48.37
28000;BME280;15328;50.860;10.562;2023-06-10T07:01:07;96613.75;;;20.45;47.96
28000;BME280;15328;50.860;10.562;2023-06-10T07:06:08;96618.56;;;20.53;47.65
28000;BME280;15328;50.860;10.562;2023-06-10T07:11:08;96621.84;;;20.55;47.54
28000;BME280;15328;50.860;10.562;2023-06-10T07:16:09;96623.69;;;20.59;47.15
28000;BME280;15328;50.860;10.562;2023-06-10T07:21:09;96623.38;;;20.71;47.74
28000;BME280;15328;50.860;10.562;2023-06-10T07:26:10;96625.75;;;20.78;47.30
28000;BME280;15328;50.860;10.562;2023-06-10T07:31:11;96617.38;;;20.84;47.49
28000;BME280;15328;50.860;10.562;2023-06-10T07:36:12;96616.41;;;21.09;47.62
28000;BME280;15328;50.860;10.562;2023-06-10T07:41:12;96620.91;;;21.29;47.52
28000;BME280;15328;50.860;10.562;2023-06-10T07:46:12;96618.91;;;21.45;47.05
28000;BME280;15328;50.860;10.562;2023-06-10T07:51:13;96626.06;;;21.59;46.99
28000;BME280;15328;50.860;10.562;2023-06-10T07:56:13;96620.53;;;21.75;46.82
28000;BME280;15328;50.860;10.562;2023-06-10T08:01:13;96627.41;;;21.91;46.67
28000;BME280;15328;50.860;10.562;2023-06-10T08:06:14;96621.69;;;21.98;46.36
28000;BME280;15328;50.860;10.562;2023-06-10T08:11:14;96621.25;;;22.19;46.07
28000;BME280;15328;50.860;10.562;2023-06-10T08:16:15;96621.34;;;22.33;46.31
28000;BME280;15328;50.860;10.562;2023-06-10T08:21:15;96622.31;;;22.42;46.20
28000;BME280;15328;50.860;10.562;2023-06-10T08:26:16;96625.00;;;22.66;46.61
28000;BME280;15328;50.860;10.562;2023-06-10T08:31:16;96624.31;;;22.79;45.55
28000;BME280;15328;50.860;10.562;2023-06-10T08:36:16;96634.88;;;23.05;45.83
28000;BME280;15328;50.860;10.562;2023-06-10T08:41:17;96629.72;;;23.22;45.15
28000;BME280;15328;50.860;10.562;2023-06-10T08:46:18;96632.56;;;23.50;45.13
28000;BME280;15328;50.860;10.562;2023-06-10T08:51:19;96629.47;;;23.75;44.77
28000;BME280;15328;50.860;10.562;2023-06-10T08:56:21;96630.88;;;24.19;45.04
28000;BME280;15328;50.860;10.562;2023-06-10T09:01:25;96627.00;;;24.52;43.96
28000;BME280;15328;50.860;10.562;2023-06-10T09:06:26;96624.47;;;24.83;42.75
28000;BME280;15328;50.860;10.562;2023-06-10T09:11:27;96628.09;;;25.06;42.12
28000;BME280;15328;50.860;10.562;2023-06-10T09:16:28;96629.56;;;25.26;41.60
28000;BME280;15328;50.860;10.562;2023-06-10T09:21:28;96626.28;;;25.38;40.71
28000;BME280;15328;50.860;10.562;2023-06-10T09:26:29;96625.63;;;25.54;40.32
28000;BME280;15328;50.860;10.562;2023-06-10T09:31:34;96626.34;;;25.82;40.69
28000;BME280;15328;50.860;10.562;2023-06-10T09:36:36;96623.47;;;26.10;39.30
28000;BME280;15328;50.860;10.562;2023-06-10T09:41:41;96623.47;;;26.41;39.11
28000;BME280;15328;50.860;10.562;2023-06-10T09:46:42;96623.09;;;26.65;38.70
28000;BME280;15328;50.860;10.562;2023-06-10T09:51:53;96621.41;;;26.95;37.04
28000;BME280;15328;50.860;10.562;2023-06-10T09:56:54;96630.75;;;27.11;37.81
28000;BME280;15328;50.860;10.562;2023-06-10T10:01:55;96618.25;;;27.53;36.86
28000;BME280;15328;50.860;10.562;2023-06-10T10:06:55;96615.97;;;27.90;35.90
28000;BME280;15328;50.860;10.562;2023-06-10T10:11:57;96611.31;;;28.54;34.97
28000;BME280;15328;50.860;10.562;2023-06-10T10:17:01;96626.50;;;29.52;34.41
28000;BME280;15328;50.860;10.562;2023-06-10T10:22:07;96618.34;;;30.31;32.28
28000;BME280;15328;50.860;10.562;2023-06-10T10:27:51;96618.84;;;31.06;31.02
28000;BME280;15328;50.860;10.562;2023-06-10T10:33:05;96623.16;;;31.44;28.77
28000;BME280;15328;50.860;10.562;2023-06-10T10:38:07;96614.25;;;31.22;29.20
28000;BME280;15328;50.860;10.562;2023-06-10T10:43:09;96625.91;;;31.44;29.98
28000;BME280;15328;50.860;10.562;2023-06-10T10:48:11;96601.91;;;31.28;29.07
28000;BME280;15328;50.860;10.562;2023-06-10T10:53:19;96603.97;;;31.31;29.59
28000;BME280;15328;50.860;10.562;2023-06-10T10:58:24;96614.22;;;31.47;29.54
28000;BME280;15328;50.860;10.562;2023-06-10T11:03:28;96598.63;;;30.98;27.32
28000;BME280;15328;50.860;10.562;2023-06-10T11:13:32;96580.66;;;30.64;28.62
28000;BME280;15328;50.860;10.562;2023-06-10T11:18:38;96592.44;;;30.65;28.77
28000;BME280;15328;50.860;10.562;2023-06-10T11:23:40;96582.50;;;30.97;29.48
28000;BME280;15328;50.860;10.562;2023-06-10T11:29:01;96583.84;;;31.03;28.32
28000;BME280;15328;50.860;10.562;2023-06-10T11:34:03;96596.88;;;31.18;28.77
28000;BME280;15328;50.860;10.562;2023-06-10T11:39:05;96570.56;;;30.93;28.05
28000;BME280;15328;50.860;10.562;2023-06-10T11:44:11;96574.00;;;31.02;28.19
28000;BME280;15328;50.860;10.562;2023-06-10T11:49:11;96567.72;;;30.89;28.56
28000;BME280;15328;50.860;10.562;2023-06-10T11:54:12;96568.69;;;30.69;27.43
28000;BME280;15328;50.860;10.562;2023-06-10T11:59:12;96572.41;;;30.16;28.88
28000;BME280;15328;50.860;10.562;2023-06-10T12:04:14;96577.03;;;30.03;29.22
28000;BME280;15328;50.860;10.562;2023-06-10T12:09:25;96575.69;;;29.76;30.64
28000;BME280;15328;50.860;10.562;2023-06-10T12:19:58;96581.03;;;30.05;30.45
28000;BME280;15328;50.860;10.562;2023-06-10T12:25:01;96568.00;;;30.02;30.17
28000;BME280;15328;50.860;10.562;2023-06-10T12:30:04;96569.19;;;29.80;30.55
28000;BME280;15328;50.860;10.562;2023-06-10T12:35:06;96562.50;;;30.02;30.38
28000;BME280;15328;50.860;10.562;2023-06-10T12:40:07;96564.50;;;30.14;30.40
28000;BME280;15328;50.860;10.562;2023-06-10T12:45:11;96571.38;;;30.32;29.68
28000;BME280;15328;50.860;10.562;2023-06-10T12:50:12;96563.22;;;30.11;29.85
28000;BME280;15328;50.860;10.562;2023-06-10T12:55:13;96564.38;;;29.77;30.56
28000;BME280;15328;50.860;10.562;2023-06-10T13:00:13;96555.50;;;29.06;31.04
28000;BME280;15328;50.860;10.562;2023-06-10T13:05:14;96557.47;;;28.67;31.89
28000;BME280;15328;50.860;10.562;2023-06-10T13:10:15;96548.94;;;28.98;32.14
28000;BME280;15328;50.860;10.562;2023-06-10T13:15:16;96557.03;;;29.15;32.48
28000;BME280;15328;50.860;10.562;2023-06-10T13:20:18;96555.88;;;28.66;32.99
28000;BME280;15328;50.860;10.562;2023-06-10T13:25:18;96544.75;;;28.71;33.88
28000;BME280;15328;50.860;10.562;2023-06-10T13:30:19;96547.47;;;28.71;33.43
28000;BME280;15328;50.860;10.562;2023-06-10T13:35:19;96538.00;;;28.39;33.93
28000;BME280;15328;50.860;10.562;2023-06-10T13:40:20;96527.97;;;28.14;34.14
28000;BME280;15328;50.860;10.562;2023-06-10T13:45:20;96529.72;;;28.27;34.02
28000;BME280;15328;50.860;10.562;2023-06-10T13:50:20;96545.03;;;28.11;33.98
28000;BME280;15328;50.860;10.562;2023-06-10T13:55:21;96540.19;;;27.69;34.80
28000;BME280;15328;50.860;10.562;2023-06-10T14:00:21;96528.13;;;27.36;35.04
28000;BME280;15328;50.860;10.562;2023-06-10T14:05:21;96531.06;;;27.14;35.75
28000;BME280;15328;50.860;10.562;2023-06-10T14:10:22;96525.06;;;26.94;36.23
28000;BME280;15328;50.860;10.562;2023-06-10T14:15:22;96523.97;;;26.87;35.67
28000;BME280;15328;50.860;10.562;2023-06-10T14:20:23;96509.03;;;26.93;36.44
28000;BME280;15328;50.860;10.562;2023-06-10T14:25:25;96523.50;;;27.28;36.16
28000;BME280;15328;50.860;10.562;2023-06-10T14:30:25;96523.66;;;27.23;36.13
28000;BME280;15328;50.860;10.562;2023-06-10T14:35:26;96512.09;;;27.17;35.48
28000;BME280;15328;50.860;10.562;2023-06-10T14:40:26;96499.75;;;27.20;35.12
28000;BME280;15328;50.860;10.562;2023-06-10T14:45:28;96505.84;;;27.17;35.18
28000;BME280;15328;50.860;10.562;2023-06-10T14:50:29;96511.31;;;27.17;35.53
28000;BME280;15328;50.860;10.562;2023-06-10T14:55:29;96506.63;;;27.26;34.81
28000;BME280;15328;50.860;10.562;2023-06-10T15:00:30;96506.16;;;27.24;33.94
28000;BME280;15328;50.860;10.562;2023-06-10T15:05:30;96494.44;;;27.15;32.33
28000;BME280;15328;50.860;10.562;2023-06-10T15:10:30;96509.53;;;27.21;33.29
28000;BME280;15328;50.860;10.562;2023-06-10T15:15:31;96518.97;;;27.32;34.29
28000;BME280;15328;50.860;10.562;2023-06-10T15:20:31;96510.47;;;27.33;34.07
28000;BME280;15328;50.860;10.562;2023-06-10T15:25:31;96504.84;;;27.38;33.17
28000;BME280;15328;50.860;10.562;2023-06-10T15:30:32;96504.41;;;27.19;31.98
28000;BME280;15328;50.860;10.562;2023-06-10T15:35:32;96497.81;;;27.03;31.71
28000;BME280;15328;50.860;10.562;2023-06-10T15:40:33;96505.34;;;26.89;31.50
28000;BME280;15328;50.860;10.562;2023-06-10T15:45:33;96502.59;;;26.80;31.75
28000;BME280;15328;50.860;10.562;2023-06-10T15:50:34;96495.03;;;26.77;31.29
28000;BME280;15328;50.860;10.562;2023-06-10T15:55:34;96497.13;;;26.71;32.13
28000;BME280;15328;50.860;10.562;2023-06-10T16:00:34;96488.78;;;26.76;32.30
28000;BME280;15328;50.860;10.562;2023-06-10T16:05:35;96495.84;;;26.77;31.07
28000;BME280;15328;50.860;10.562;2023-06-10T16:10:36;96488.31;;;26.66;31.32
28000;BME280;15328;50.860;10.562;2023-06-10T16:15:36;96492.47;;;26.63;31.16
28000;BME280;15328;50.860;10.562;2023-06-10T16:20:36;96498.25;;;26.62;33.08
28000;BME280;15328;50.860;10.562;2023-06-10T16:25:37;96512.34;;;26.46;33.65
28000;BME280;15328;50.860;10.562;2023-06-10T16:30:38;96496.75;;;26.38;33.98
28000;BME280;15328;50.860;10.562;2023-06-10T16:35:39;96497.66;;;26.25;34.37
28000;BME280;15328;50.860;10.562;2023-06-10T16:40:39;96506.28;;;26.18;34.40
28000;BME280;15328;50.860;10.562;2023-06-10T16:45:39;96509.47;;;26.03;34.63
28000;BME280;15328;50.860;10.562;2023-06-10T16:50:39;96505.94;;;26.03;34.70
28000;BME280;15328;50.860;10.562;2023-06-10T16:55:40;96503.63;;;25.96;34.84
28000;BME280;15328;50.860;10.562;2023-06-10T17:00:41;96505.13;;;26.02;35.09
28000;BME280;15328;50.860;10.562;2023-06-10T17:05:45;96512.63;;;25.97;34.90
28000;BME280;15328;50.860;10.562;2023-06-10T17:10:46;96527.50;;;25.91;35.48
28000;BME280;15328;50.860;10.562;2023-06-10T17:15:46;96534.19;;;25.76;34.55
28000;BME280;15328;50.860;10.562;2023-06-10T17:20:47;96536.69;;;25.72;34.43
28000;BME280;15328;50.860;10.562;2023-06-10T17:25:47;96538.19;;;25.78;35.13
28000;BME280;15328;50.860;10.562;2023-06-10T17:30:48;96541.66;;;25.70;34.94
28000;BME280;15328;50.860;10.562;2023-06-10T17:35:48;96550.38;;;25.58;35.08
28000;BME280;15328;50.860;10.562;2023-06-10T17:40:50;96566.03;;;25.53;35.90
28000;BME280;15328;50.860;10.562;2023-06-10T17:45:50;96574.56;;;25.38;36.47
28000;BME280;15328;50.860;10.562;2023-06-10T17:50:51;96574.63;;;25.24;37.14
28000;BME280;15328;50.860;10.562;2023-06-10T17:55:52;96572.94;;;25.14;37.39
28000;BME280;15328;50.860;10.562;2023-06-10T18:00:53;96584.69;;;25.01;37.95
28000;BME280;15328;50.860;10.562;2023-06-10T18:05:54;96587.69;;;24.86;38.09
28000;BME280;15328;50.860;10.562;2023-06-10T18:10:54;96596.78;;;24.81;38.54
28000;BME280;15328;50.860;10.562;2023-06-10T18:15:55;96591.88;;;24.70;38.89
28000;BME280;15328;50.860;10.562;2023-06-10T18:20:55;96593.38;;;24.48;39.39
28000;BME280;15328;50.860;10.562;2023-06-10T18:25:56;96597.13;;;24.39;40.17
28000;BME280;15328;50.860;10.562;2023-06-10T18:30:57;96603.00;;;24.27;40.68
28000;BME280;15328;50.860;10.562;2023-06-10T18:35:57;96601.09;;;24.14;41.24
28000;BME280;15328;50.860;10.562;2023-06-10T18:40:58;96601.28;;;24.03;41.81
28000;BME280;15328;50.860;10.562;2023-06-10T18:45:59;96616.25;;;23.87;42.49
28000;BME280;15328;50.860;10.562;2023-06-10T18:51:00;96616.09;;;23.79;43.04
28000;BME280;15328;50.860;10.562;2023-06-10T18:56:00;96612.84;;;23.63;43.70
28000;BME280;15328;50.860;10.562;2023-06-10T19:01:03;96617.88;;;23.56;43.81
28000;BME280;15328;50.860;10.562;2023-06-10T19:06:04;96618.88;;;23.41;44.45
28000;BME280;15328;50.860;10.562;2023-06-10T19:11:05;96616.31;;;23.31;44.86
28000;BME280;15328;50.860;10.562;2023-06-10T19:16:06;96621.78;;;23.26;45.10
28000;BME280;15328;50.860;10.562;2023-06-10T19:21:09;96636.03;;;23.18;45.56
28000;BME280;15328;50.860;10.562;2023-06-10T19:26:10;96643.53;;;23.07;46.00
28000;BME280;15328;50.860;10.562;2023-06-10T19:31:10;96642.78;;;23.01;45.42
28000;BME280;15328;50.860;10.562;2023-06-10T19:36:10;96637.78;;;22.90;44.85
28000;BME280;15328;50.860;10.562;2023-06-10T19:41:11;96650.41;;;22.75;44.51
28000;BME280;15328;50.860;10.562;2023-06-10T19:46:11;96653.00;;;22.62;44.70
28000;BME280;15328;50.860;10.562;2023-06-10T19:51:12;96654.81;;;22.47;45.05
28000;BME280;15328;50.860;10.562;2023-06-10T19:56:12;96656.28;;;22.35;44.83
28000;BME280;15328;50.860;10.562;2023-06-10T20:01:21;96654.56;;;22.20;45.56
28000;BME280;15328;50.860;10.562;2023-06-10T20:06:22;96659.28;;;22.04;46.43
28000;BME280;15328;50.860;10.562;2023-06-10T20:11:25;96656.13;;;21.92;46.48
28000;BME280;15328;50.860;10.562;2023-06-10T20:16:25;96658.97;;;21.77;47.03
28000;BME280;15328;50.860;10.562;2023-06-10T20:21:26;96664.75;;;21.65;46.93
28000;BME280;15328;50.860;10.562;2023-06-10T20:26:26;96673.69;;;21.60;46.92
28000;BME280;15328;50.860;10.562;2023-06-10T20:31:27;96680.56;;;21.48;46.33
28000;BME280;15328;50.860;10.562;2023-06-10T20:36:27;96684.44;;;21.37;46.02
28000;BME280;15328;50.860;10.562;2023-06-10T20:41:28;96684.75;;;21.25;46.02
28000;BME280;15328;50.860;10.562;2023-06-10T20:46:29;96678.84;;;21.18;46.28
28000;BME280;15328;50.860;10.562;2023-06-10T20:51:30;96675.03;;;21.19;46.05
28000;BME280;15328;50.860;10.562;2023-06-10T20:56:33;96679.13;;;21.16;46.03
28000;BME280;15328;50.860;10.562;2023-06-10T21:01:33;96688.88;;;21.12;46.30
28000;BME280;15328;50.860;10.562;2023-06-10T21:06:34;96688.59;;;21.14;46.47
28000;BME280;15328;50.860;10.562;2023-06-10T21:11:35;96691.84;;;21.06;46.75
28000;BME280;15328;50.860;10.562;2023-06-10T21:16:35;96688.66;;;20.98;47.39
28000;BME280;15328;50.860;10.562;2023-06-10T21:21:35;96700.63;;;20.82;48.06
28000;BME280;15328;50.860;10.562;2023-06-10T21:26:36;96706.56;;;20.79;47.99
28000;BME280;15328;50.860;10.562;2023-06-10T21:31:36;96706.09;;;20.62;48.31
28000;BME280;15328;50.860;10.562;2023-06-10T21:36:36;96712.88;;;20.59;48.47
28000;BME280;15328;50.860;10.562;2023-06-10T21:41:37;96704.78;;;20.49;48.57
28000;BME280;15328;50.860;10.562;2023-06-10T21:46:37;96720.72;;;20.35;48.95
28000;BME280;15328;50.860;10.562;2023-06-10T21:51:38;96721.28;;;20.22;48.78
28000;BME280;15328;50.860;10.562;2023-06-10T21:56:38;96715.09;;;20.06;48.91
28000;BME280;15328;50.860;10.562;2023-06-10T22:01:38;96716.72;;;20.02;49.13
28000;BME280;15328;50.860;10.562;2023-06-10T22:06:39;96722.91;;;20.08;48.79
28000;BME280;15328;50.860;10.562;2023-06-10T22:11:39;96724.53;;;19.94;49.35
28000;BME280;15328;50.860;10.562;2023-06-10T22:16:40;96718.59;;;19.87;49.62
28000;BME280;15328;50.860;10.562;2023-06-10T22:21:40;96719.41;;;19.77;49.51
28000;BME280;15328;50.860;10.562;2023-06-10T22:26:41;96714.56;;;19.79;49.46
28000;BME280;15328;50.860;10.562;2023-06-10T22:31:41;96717.53;;;19.72;49.83
28000;BME280;15328;50.860;10.562;2023-06-10T22:36:41;96715.88;;;19.66;49.64
28000;BME280;15328;50.860;10.562;2023-06-10T22:41:42;96708.06;;;19.65;49.81
28000;BME280;15328;50.860;10.562;2023-06-10T22:46:43;96712.63;;;19.54;50.22
28000;BME280;15328;50.860;10.562;2023-06-10T22:51:43;96712.56;;;19.44;50.19
28000;BME280;15328;50.860;10.562;2023-06-10T22:56:44;96703.66;;;19.38;50.15
28000;BME280;15328;50.860;10.562;2023-06-10T23:01:45;96702.56;;;19.24;51.02
28000;BME280;15328;50.860;10.562;2023-06-10T23:06:45;96698.00;;;19.25;50.53
28000;BME280;15328;50.860;10.562;2023-06-10T23:11:46;96702.53;;;19.09;50.75
28000;BME280;15328;50.860;10.562;2023-06-10T23:16:46;96701.97;;;19.07;50.84
28000;BME280;15328;50.860;10.562;2023-06-10T23:21:47;96708.97;;;18.98;51.44
28000;BME280;15328;50.860;10.562;2023-06-10T23:26:57;96710.06;;;19.02;51.00
28000;BME280;15328;50.860;10.562;2023-06-10T23:31:58;96718.13;;;18.97;51.13
28000;BME280;15328;50.860;10.562;2023-06-10T23:36:58;96712.69;;;18.87;51.09
28000;BME280;15328;50.860;10.562;2023-06-10T23:41:58;96714.03;;;18.84;51.45
28000;BME280;15328;50.860;10.562;2023-06-10T23:46:59;96721.56;;;18.82;51.52
28000;BME280;15328;50.860;10.562;2023-06-10T23:52:00;96722.09;;;18.79;51.73
28000;BME280;15328;50.860;10.562;2023-06-10T23:57:00;96720.16;;;18.69;51.29
